Time;durP1;ratioP1;P1;durP2;ratioP2;P2;SDS_P1;SDS_P2;PMS_P1;PMS_P2;Temp;Humidity;BMP_temperature;BMP_pressure;BME280_temperature;BME280_humidity;BME280_pressure;Samples;Min_cycle;Max_cycle;Signal;HPM_P1;HPM_P2
2022/07/13 00:00:14;;;;;;;0.10;0.10;;;16.90;94.20;;;;;;4979422;28;20034;-75
2022/07/13 00:02:40;;;;;;;0.10;0.10;;;17.10;93.70;;;;;;5029849;22;20544;-75
2022/07/13 00:05:06;;;;;;;0.10;0.10;;;17.10;93.70;;;;;;5031489;28;20108;-75
2022/07/13 00:07:34;;;;;;;0.10;0.10;;;17.00;93.80;;;;;;5032338;28;20032;-74
2022/07/13 00:09:59;;;;;;;0.75;0.75;;;17.00;93.80;;;;;;5032348;28;20029;-73
2022/07/13 00:12:25;;;;;;;0.20;0.20;;;16.80;94.10;;;;;;5032415;28;20022;-74
2022/07/13 00:14:51;;;;;;;0.15;0.15;;;16.60;95.00;;;;;;5032587;28;20065;-74
2022/07/13 00:17:17;;;;;;;0.10;0.10;;;16.50;95.20;;;;;;5031131;28;20025;-73
2022/07/13 00:19:43;;;;;;;0.10;0.10;;;16.40;95.60;;;;;;5014468;28;20036;-73
2022/07/13 00:22:09;;;;;;;0.20;0.20;;;16.40;95.70;;;;;;5030358;28;20025;-74
2022/07/13 00:24:34;;;;;;;0.10;0.10;;;16.40;96.00;;;;;;5032137;28;20108;-73
2022/07/13 00:27:00;;;;;;;0.28;0.28;;;16.40;96.30;;;;;;5032262;28;20497;-74
2022/07/13 00:29:26;;;;;;;0.20;0.20;;;16.30;96.80;;;;;;5032100;28;20463;-73
2022/07/13 00:31:52;;;;;;;0.20;0.20;;;16.30;96.90;;;;;;5032097;28;20022;-73
2022/07/13 00:34:17;;;;;;;0.10;0.10;;;16.30;97.10;;;;;;5032101;28;20053;-74
2022/07/13 00:36:43;;;;;;;0.10;0.10;;;16.40;97.40;;;;;;5032086;28;20025;-73
2022/07/13 00:39:09;;;;;;;0.50;0.50;;;16.60;97.10;;;;;;5032068;28;20061;-73
2022/07/13 00:41:35;;;;;;;0.55;0.55;;;16.50;97.30;;;;;;5030680;28;20056;-74
2022/07/13 00:44:08;;;;;;;0.10;0.10;;;16.40;97.70;;;;;;5031903;28;20521;-73
2022/07/13 00:46:35;;;;;;;0.20;0.20;;;16.50;98.10;;;;;;5032015;28;20017;-74
2022/07/13 00:49:02;;;;;;;0.10;0.10;;;16.60;97.80;;;;;;5030763;28;20105;-74
2022/07/13 00:51:28;;;;;;;0.10;0.10;;;16.70;97.80;;;;;;5031858;28;20473;-74
2022/07/13 00:53:54;;;;;;;0.10;0.10;;;16.40;97.90;;;;;;5032155;28;20065;-74
2022/07/13 00:56:21;;;;;;;0.17;0.17;;;16.30;99.10;;;;;;5031873;28;20033;-73
2022/07/13 00:58:47;;;;;;;0.10;0.10;;;16.30;99.40;;;;;;5030532;28;20060;-74
2022/07/13 01:01:12;;;;;;;0.20;0.20;;;16.30;99.40;;;;;;5031807;28;20057;-74
2022/07/13 01:03:38;;;;;;;0.45;0.45;;;16.40;99.20;;;;;;5031509;28;20041;-73
2022/07/13 01:06:06;;;;;;;0.32;0.32;;;16.30;99.40;;;;;;5031747;28;20107;-73
2022/07/13 01:08:33;;;;;;;0.10;0.10;;;16.20;99.90;;;;;;5031744;28;20018;-73
2022/07/13 01:10:59;;;;;;;0.10;0.10;;;16.10;99.90;;;;;;5030308;28;20068;-73
2022/07/13 01:13:25;;;;;;;0.10;0.10;;;16.30;99.90;;;;;;5031711;28;20030;-73
2022/07/13 01:15:51;;;;;;;0.08;0.08;;;16.40;99.90;;;;;;5031684;28;20032;-73
2022/07/13 01:18:17;;;;;;;0.20;0.20;;;16.30;99.90;;;;;;5031717;28;20350;-73
2022/07/13 01:20:43;;;;;;;0.22;0.22;;;16.30;99.90;;;;;;5030405;28;20017;-73
2022/07/13 01:23:14;;;;;;;0.10;0.10;;;16.30;99.90;;;;;;5031743;28;20079;-74
2022/07/13 01:25:41;;;;;;;0.20;0.20;;;16.20;99.90;;;;;;5031586;28;20022;-73
2022/07/13 01:28:07;;;;;;;0.10;0.10;;;16.20;99.90;;;;;;5013848;28;20121;-73
2022/07/13 01:30:33;;;;;;;0.10;0.10;;;16.50;99.90;;;;;;5031528;28;20018;-74
2022/07/13 01:33:00;;;;;;;0.10;0.10;;;16.40;99.90;;;;;;5030281;28;20434;-73
2022/07/13 01:35:26;;;;;;;0.17;0.17;;;16.30;99.90;;;;;;5034838;28;20534;-73
2022/07/13 01:37:53;;;;;;;0.55;0.55;;;16.20;99.90;;;;;;5035079;28;20025;-73
2022/07/13 01:40:19;;;;;;;0.10;0.10;;;16.00;99.90;;;;;;5035064;28;20021;-73
2022/07/13 01:42:52;;;;;;;0.13;0.13;;;15.90;99.90;;;;;;5035157;28;20045;-73
2022/07/13 01:45:22;;;;;;;0.20;0.20;;;15.80;99.90;;;;;;5033865;28;20033;-73
2022/07/13 01:47:50;;;;;;;0.10;0.10;;;15.80;99.90;;;;;;5034910;28;20301;-73
2022/07/13 01:50:18;;;;;;;0.43;0.43;;;15.80;99.90;;;;;;5034879;28;20096;-73
2022/07/13 01:52:44;;;;;;;0.20;0.20;;;15.70;99.90;;;;;;5033582;28;20053;-73
2022/07/13 01:55:12;;;;;;;0.40;0.40;;;15.60;99.90;;;;;;5034794;28;20512;-73
2022/07/13 01:57:38;;;;;;;0.30;0.30;;;15.60;99.90;;;;;;5034775;28;20056;-73
2022/07/13 02:00:15;;;;;;;1.00;0.95;;;15.60;99.90;;;;;;5034749;28;20518;-73
2022/07/13 02:02:42;;;;;;;0.90;0.38;;;15.50;99.90;;;;;;5034551;28;20397;-73
2022/07/13 02:05:09;;;;;;;0.45;0.30;;;15.50;99.90;;;;;;5034640;28;20029;-73
2022/07/13 02:07:36;;;;;;;0.05;0.05;;;15.50;99.90;;;;;;5033543;28;20022;-73
2022/07/13 02:10:04;;;;;;;0.28;0.28;;;15.40;99.90;;;;;;5034543;28;20021;-73
2022/07/13 02:12:30;;;;;;;0.10;0.10;;;15.50;99.90;;;;;;5033376;28;20497;-73
2022/07/13 02:14:55;;;;;;;0.30;0.30;;;15.60;99.90;;;;;;5033192;28;20120;-74
2022/07/13 02:17:21;;;;;;;0.40;0.30;;;15.70;99.90;;;;;;5034413;28;20018;-73
2022/07/13 02:19:47;;;;;;;0.10;0.10;;;15.70;99.90;;;;;;5034235;28;20025;-73
2022/07/13 02:22:13;;;;;;;0.32;0.32;;;15.70;99.90;;;;;;5033229;28;20362;-73
2022/07/13 02:24:38;;;;;;;0.20;0.20;;;15.70;99.90;;;;;;5034298;28;20361;-73
2022/07/13 02:27:04;;;;;;;0.10;0.10;;;15.50;99.90;;;;;;5016528;28;20037;-73
2022/07/13 02:29:30;;;;;;;0.20;0.20;;;15.60;99.90;;;;;;5034137;28;20091;-73
2022/07/13 02:31:55;;;;;;;0.25;0.22;;;15.50;99.90;;;;;;5034115;28;20009;-73
2022/07/13 02:34:27;;;;;;;0.10;0.10;;;15.40;99.90;;;;;;5034181;28;20087;-73
2022/07/13 02:36:56;;;;;;;0.32;0.32;;;15.20;99.90;;;;;;5032833;28;20026;-73
2022/07/13 02:39:23;;;;;;;0.15;0.15;;;15.10;99.90;;;;;;5034128;28;20447;-73
2022/07/13 02:41:49;;;;;;;0.10;0.10;;;15.10;99.90;;;;;;5016186;28;20025;-74
2022/07/13 02:44:15;;;;;;;0.65;0.65;;;15.10;99.90;;;;;;5033973;28;20036;-73
2022/07/13 02:46:41;;;;;;;0.10;0.10;;;15.10;99.90;;;;;;5015529;28;20052;-74
2022/07/13 02:49:07;;;;;;;0.13;0.13;;;15.20;99.90;;;;;;5107768;22;20387;-74
2022/07/13 02:51:36;;;;;;;0.20;0.20;;;15.30;99.90;;;;;;5036322;28;20037;-75
2022/07/13 02:54:02;;;;;;;0.13;0.13;;;15.30;99.90;;;;;;5036490;28;20107;-73
2022/07/13 02:56:28;;;;;;;0.47;0.47;;;15.10;99.90;;;;;;5053750;28;20040;-73
2022/07/13 02:58:53;;;;;;;0.10;0.10;;;15.00;99.90;;;;;;5035692;28;20033;-73
2022/07/13 03:01:19;;;;;;;0.22;0.22;;;14.90;99.90;;;;;;5035687;28;20078;-73
2022/07/13 03:03:45;;;;;;;0.20;0.20;;;15.00;99.90;;;;;;5035571;28;20025;-73
2022/07/13 03:06:11;;;;;;;0.10;0.10;;;15.00;99.90;;;;;;5053363;28;20044;-73
2022/07/13 03:08:37;;;;;;;0.10;0.10;;;15.20;99.90;;;;;;5053312;28;20029;-73
2022/07/13 03:11:04;;;;;;;0.20;0.20;;;15.20;99.90;;;;;;5035382;28;20465;-73
2022/07/13 03:13:30;;;;;;;1.10;0.40;;;15.20;99.90;;;;;;5053370;28;20480;-73
2022/07/13 03:15:55;;;;;;;0.20;0.20;;;15.10;99.90;;;;;;5035242;28;20051;-73
2022/07/13 03:18:21;;;;;;;0.20;0.20;;;15.10;99.90;;;;;;5035316;28;20067;-73
2022/07/13 03:20:47;;;;;;;0.25;0.25;;;15.00;99.90;;;;;;5053056;28;20017;-73
2022/07/13 03:23:12;;;;;;;0.20;0.20;;;14.90;99.90;;;;;;5053125;28;20042;-73
2022/07/13 03:25:38;;;;;;;0.20;0.20;;;15.10;99.90;;;;;;5035210;28;20021;-73
2022/07/13 03:28:04;;;;;;;0.20;0.20;;;15.20;99.90;;;;;;5052985;28;20100;-73
2022/07/13 03:30:30;;;;;;;0.10;0.10;;;15.40;99.90;;;;;;5052833;28;20038;-73
2022/07/13 03:32:55;;;;;;;0.10;0.10;;;15.40;99.90;;;;;;5035022;28;20163;-73
2022/07/13 03:35:22;;;;;;;0.10;0.10;;;15.40;99.90;;;;;;5049365;22;20049;-76
2022/07/13 03:37:48;;;;;;;0.10;0.10;;;15.40;99.90;;;;;;5052590;28;20411;-76
2022/07/13 03:40:13;;;;;;;0.10;0.10;;;15.30;99.90;;;;;;5052400;28;20028;-74
2022/07/13 03:42:39;;;;;;;0.20;0.20;;;15.40;99.90;;;;;;5052658;28;20100;-74
2022/07/13 03:45:06;;;;;;;0.25;0.25;;;15.40;99.90;;;;;;5034563;28;20373;-74
2022/07/13 03:47:32;;;;;;;0.10;0.10;;;15.30;99.90;;;;;;5052153;28;20017;-74
2022/07/13 03:49:57;;;;;;;0.20;0.20;;;15.30;99.90;;;;;;5034412;28;20044;-74
2022/07/13 03:52:23;;;;;;;0.30;0.30;;;15.10;99.90;;;;;;5034755;28;20357;-74
2022/07/13 03:54:49;;;;;;;0.20;0.20;;;14.90;99.90;;;;;;5052535;28;20029;-74
2022/07/13 03:57:15;;;;;;;0.10;0.10;;;14.90;99.90;;;;;;5033540;28;20029;-74
2022/07/13 03:59:40;;;;;;;0.10;0.10;;;15.00;99.90;;;;;;5051736;28;20028;-76
2022/07/13 04:02:06;;;;;;;0.30;0.30;;;15.10;99.90;;;;;;5034491;28;20024;-75
2022/07/13 04:04:32;;;;;;;0.20;0.20;;;15.20;99.90;;;;;;5052244;28;20021;-75
2022/07/13 04:06:57;;;;;;;0.30;0.30;;;15.10;99.90;;;;;;5034301;28;20029;-75
2022/07/13 04:09:23;;;;;;;2.72;0.60;;;15.00;99.90;;;;;;5034222;28;20108;-75
2022/07/13 04:11:49;;;;;;;0.10;0.10;;;15.00;99.90;;;;;;5052169;28;20017;-75
2022/07/13 04:14:15;;;;;;;0.28;0.28;;;15.00;99.90;;;;;;5051966;28;20036;-75
2022/07/13 04:16:41;;;;;;;0.25;0.25;;;15.00;99.90;;;;;;5034329;28;20025;-75
2022/07/13 04:19:06;;;;;;;0.10;0.10;;;15.20;99.90;;;;;;5034128;28;20029;-75
2022/07/13 04:21:32;;;;;;;0.10;0.10;;;15.30;99.90;;;;;;5051912;28;20032;-75
2022/07/13 04:23:58;;;;;;;0.10;0.10;;;15.30;99.90;;;;;;5017610;28;20036;-75
2022/07/13 04:26:24;;;;;;;0.35;0.32;;;15.30;99.90;;;;;;5052034;28;20060;-75
2022/07/13 04:28:50;;;;;;;0.70;0.50;;;15.40;99.90;;;;;;5033897;28;20025;-75
2022/07/13 04:31:16;;;;;;;0.22;0.22;;;15.40;99.90;;;;;;5051764;28;20025;-75
2022/07/13 04:33:41;;;;;;;0.22;0.22;;;15.30;99.90;;;;;;5034053;28;20021;-75
2022/07/13 04:36:08;;;;;;;0.52;0.45;;;15.30;99.90;;;;;;5034081;28;20392;-75
2022/07/13 04:38:53;;;;;;;0.77;0.50;;;15.30;99.90;;;;;;5023359;28;20355;-75
2022/07/13 04:41:20;;;;;;;0.10;0.10;;;15.50;99.90;;;;;;5017608;28;20151;-75
2022/07/13 04:43:46;;;;;;;0.77;0.35;;;15.50;99.90;;;;;;5033737;28;20108;-75
2022/07/13 04:46:12;;;;;;;0.10;0.10;;;15.70;99.90;;;;;;5051769;28;20021;-75
2022/07/13 04:48:38;;;;;;;0.28;0.28;;;15.80;99.90;;;;;;5033898;28;20479;-75
2022/07/13 04:51:04;;;;;;;0.10;0.10;;;15.80;99.90;;;;;;5033765;28;20060;-74
2022/07/13 04:53:30;;;;;;;0.20;0.20;;;15.90;99.90;;;;;;5017419;28;20024;-75
2022/07/13 04:55:56;;;;;;;0.10;0.10;;;16.20;99.90;;;;;;5017168;28;20024;-75
2022/07/13 04:58:22;;;;;;;0.32;0.30;;;16.40;99.90;;;;;;5033728;28;20420;-75
2022/07/13 05:00:48;;;;;;;0.10;0.10;;;16.50;99.90;;;;;;5017077;28;20399;-75
2022/07/13 05:03:14;;;;;;;0.20;0.20;;;16.60;99.90;;;;;;5050932;28;20025;-75
2022/07/13 05:05:39;;;;;;;0.15;0.15;;;16.70;99.90;;;;;;5062175;28;20029;-75
2022/07/13 05:08:05;;;;;;;0.10;0.10;;;16.70;99.90;;;;;;5047379;28;20029;-75
2022/07/13 05:10:31;;;;;;;0.10;0.10;;;16.70;99.90;;;;;;5020561;28;20028;-75
2022/07/13 05:12:57;;;;;;;0.20;0.20;;;16.90;99.90;;;;;;5066023;28;20070;-75
2022/07/13 05:15:23;;;;;;;0.52;0.43;;;16.90;99.90;;;;;;5057530;28;20103;-75
2022/07/13 05:17:50;;;;;;;0.30;0.30;;;16.80;99.90;;;;;;5046508;28;20032;-75
2022/07/13 05:20:16;;;;;;;0.10;0.10;;;16.90;99.90;;;;;;5055937;28;20036;-75
2022/07/13 05:22:41;;;;;;;0.10;0.10;;;17.10;99.90;;;;;;5047434;28;20033;-75
2022/07/13 05:25:08;;;;;;;0.10;0.10;;;17.20;99.90;;;;;;5036858;28;20468;-75
2022/07/13 05:27:33;;;;;;;0.20;0.20;;;17.30;99.90;;;;;;5040145;28;20047;-75
2022/07/13 05:29:59;;;;;;;0.30;0.30;;;17.40;99.90;;;;;;5054958;28;20516;-75
2022/07/13 05:32:25;;;;;;;0.17;0.17;;;17.50;99.90;;;;;;5054583;28;20041;-75
2022/07/13 05:34:50;;;;;;;0.20;0.20;;;17.60;99.90;;;;;;5051445;28;20024;-75
2022/07/13 05:37:16;;;;;;;0.10;0.10;;;17.80;99.90;;;;;;5059287;28;20021;-76
2022/07/13 05:39:44;;;;;;;0.08;0.08;;;17.90;99.90;;;;;;5063803;28;20078;-75
2022/07/13 05:42:10;;;;;;;0.10;0.10;;;18.10;99.90;;;;;;5038169;28;20394;-75
2022/07/13 05:44:36;;;;;;;0.10;0.10;;;18.30;99.90;;;;;;5039241;28;20037;-76
2022/07/13 05:47:01;;;;;;;0.10;0.10;;;18.40;99.90;;;;;;5019996;28;20112;-76
2022/07/13 05:49:27;;;;;;;0.10;0.10;;;18.50;99.90;;;;;;5019988;28;20378;-75
2022/07/13 05:51:53;;;;;;;0.17;0.17;;;18.60;99.90;;;;;;5053766;28;20032;-76
2022/07/13 05:54:18;;;;;;;0.00;0.00;;;18.60;99.90;;;;;;5052343;28;20017;-75
2022/07/13 05:56:44;;;;;;;0.10;0.10;;;18.70;99.90;;;;;;5052580;28;20614;-76
2022/07/13 05:59:10;;;;;;;0.00;0.00;;;18.80;99.90;;;;;;5036034;28;20036;-75
2022/07/13 06:01:36;;;;;;;0.57;0.57;;;18.90;99.90;;;;;;5032827;28;20032;-75
2022/07/13 06:04:02;;;;;;;0.00;0.00;;;19.00;99.90;;;;;;5040401;28;20075;-76
2022/07/13 06:06:27;;;;;;;0.22;0.22;;;19.10;99.90;;;;;;5033064;28;20033;-75
2022/07/13 06:08:53;;;;;;;0.10;0.10;;;19.20;99.90;;;;;;5032531;28;20033;-75
2022/07/13 06:11:19;;;;;;;0.00;0.00;;;19.30;99.90;;;;;;5042580;28;20599;-75
2022/07/13 06:13:44;;;;;;;0.10;0.10;;;19.40;99.90;;;;;;5029914;28;20036;-75
2022/07/13 06:16:10;;;;;;;0.10;0.10;;;19.50;99.90;;;;;;5041501;28;20481;-75
2022/07/13 06:18:36;;;;;;;0.00;0.00;;;19.60;99.90;;;;;;5040705;28;20047;-75
2022/07/13 06:21:02;;;;;;;0.10;0.10;;;19.80;99.90;;;;;;5015080;28;20602;-76
2022/07/13 06:23:27;;;;;;;0.03;0.03;;;20.00;99.90;;;;;;5030607;28;20040;-75
2022/07/13 06:25:54;;;;;;;0.00;0.00;;;20.10;99.90;;;;;;5031360;28;20568;-75
2022/07/13 06:28:19;;;;;;;0.10;0.10;;;20.20;99.90;;;;;;5014473;28;20056;-74
2022/07/13 06:30:45;;;;;;;0.00;0.00;;;20.40;99.90;;;;;;5031595;28;20061;-74
2022/07/13 06:33:11;;;;;;;0.10;0.10;;;20.40;99.90;;;;;;5030108;28;20661;-74
2022/07/13 06:35:37;;;;;;;0.00;0.00;;;20.50;99.90;;;;;;5032844;28;20561;-74
2022/07/13 06:38:02;;;;;;;0.08;0.08;;;20.70;99.90;;;;;;5033258;28;20033;-75
2022/07/13 06:40:28;;;;;;;0.10;0.10;;;20.80;99.90;;;;;;5033821;28;20416;-74
2022/07/13 06:42:54;;;;;;;0.00;0.00;;;20.90;99.90;;;;;;5029631;28;20110;-74
2022/07/13 06:45:22;;;;;;;0.10;0.10;;;21.10;99.90;;;;;;5041028;28;20047;-74
2022/07/13 06:47:48;;;;;;;0.10;0.10;;;21.20;99.20;;;;;;5041165;28;20024;-75
2022/07/13 06:50:14;;;;;;;0.00;0.00;;;21.30;98.40;;;;;;5032982;28;20029;-73
2022/07/13 06:52:40;;;;;;;0.20;0.20;;;21.30;96.90;;;;;;5040700;28;20089;-73
2022/07/13 06:55:08;;;;;;;0.00;0.00;;;21.40;95.50;;;;;;5039796;28;20503;-73
2022/07/13 06:57:34;;;;;;;0.08;0.08;;;21.50;94.90;;;;;;5014380;28;20544;-74
2022/07/13 07:00:00;;;;;;;0.00;0.00;;;21.80;94.30;;;;;;5029216;28;20036;-74
2022/07/13 07:02:25;;;;;;;0.10;0.10;;;21.90;91.50;;;;;;5040323;28;20102;-73
2022/07/13 07:04:51;;;;;;;0.00;0.00;;;22.00;90.60;;;;;;5030482;28;20028;-73
2022/07/13 07:07:17;;;;;;;0.00;0.00;;;22.00;89.70;;;;;;5042325;28;20017;-73
2022/07/13 07:09:43;;;;;;;0.00;0.00;;;22.20;89.60;;;;;;5029591;28;20056;-73
2022/07/13 07:12:09;;;;;;;0.00;0.00;;;22.30;88.90;;;;;;5031571;28;20066;-73
2022/07/13 07:14:34;;;;;;;0.00;0.00;;;22.50;88.60;;;;;;5041232;28;20040;-73
2022/07/13 07:17:02;;;;;;;0.00;0.00;;;22.70;86.20;;;;;;5031755;28;20047;-73
2022/07/13 07:19:28;;;;;;;0.00;0.00;;;22.90;83.70;;;;;;5030919;28;20104;-74
2022/07/13 07:21:54;;;;;;;0.00;0.00;;;23.00;82.40;;;;;;5029563;28;20369;-73
2022/07/13 07:24:23;;;;;;;0.00;0.00;;;23.10;80.50;;;;;;5028996;28;20037;-74
2022/07/13 07:26:49;;;;;;;0.30;0.30;;;23.00;79.20;;;;;;5039884;28;20029;-74
2022/07/13 07:29:15;;;;;;;0.00;0.00;;;23.00;77.90;;;;;;5039500;28;20128;-73
2022/07/13 07:31:41;;;;;;;0.00;0.00;;;23.10;76.50;;;;;;5039791;28;20072;-73
2022/07/13 07:34:07;;;;;;;0.10;0.10;;;23.20;76.20;;;;;;5039422;28;20149;-74
2022/07/13 07:36:33;;;;;;;0.10;0.10;;;23.10;76.00;;;;;;5029044;28;20428;-73
2022/07/13 07:38:59;;;;;;;0.00;0.00;;;23.10;75.60;;;;;;5038724;28;20032;-73
2022/07/13 07:41:24;;;;;;;0.00;0.00;;;23.30;73.60;;;;;;5029739;28;20365;-74
2022/07/13 07:43:50;;;;;;;0.00;0.00;;;23.40;70.40;;;;;;5038975;28;20032;-74
2022/07/13 07:46:16;;;;;;;0.10;0.10;;;23.40;68.60;;;;;;5039477;28;20466;-74
2022/07/13 07:48:42;;;;;;;0.10;0.10;;;23.40;68.10;;;;;;5026800;28;20539;-74
2022/07/13 07:51:08;;;;;;;0.00;0.00;;;23.70;69.20;;;;;;5037402;28;20036;-74
2022/07/13 07:53:34;;;;;;;0.05;0.05;;;23.70;68.00;;;;;;5038632;28;20489;-74
2022/07/13 07:55:59;;;;;;;0.08;0.08;;;24.00;65.50;;;;;;5038970;28;20040;-74
2022/07/13 07:58:25;;;;;;;0.00;0.00;;;24.00;65.80;;;;;;5038799;28;21086;-73
2022/07/13 08:00:51;;;;;;;0.00;0.00;;;24.20;65.40;;;;;;5027738;28;20531;-74
2022/07/13 08:03:17;;;;;;;0.00;0.00;;;24.60;64.20;;;;;;5039053;28;20029;-72
2022/07/13 08:05:48;;;;;;;0.00;0.00;;;25.00;62.30;;;;;;5037858;28;20467;-73
2022/07/13 08:08:14;;;;;;;0.00;0.00;;;25.20;60.30;;;;;;5038531;28;20453;-73
2022/07/13 08:10:40;;;;;;;0.00;0.00;;;25.40;60.40;;;;;;5038596;28;20061;-73
2022/07/13 08:13:06;;;;;;;0.00;0.00;;;25.40;59.60;;;;;;5038822;28;20056;-72
2022/07/13 08:15:32;;;;;;;0.10;0.10;;;25.50;58.30;;;;;;5038464;28;20079;-72
2022/07/13 08:17:58;;;;;;;0.00;0.00;;;25.70;56.50;;;;;;5038942;28;20028;-72
2022/07/13 08:20:25;;;;;;;0.00;0.00;;;25.70;57.40;;;;;;5037915;28;20090;-72
2022/07/13 08:22:51;;;;;;;0.00;0.00;;;26.00;56.90;;;;;;5032624;28;20037;-73
2022/07/13 08:25:17;;;;;;;0.00;0.00;;;26.10;56.00;;;;;;5038315;28;20047;-73
2022/07/13 08:27:43;;;;;;;0.00;0.00;;;26.10;53.80;;;;;;5039239;28;20512;-74
2022/07/13 08:30:11;;;;;;;0.00;0.00;;;26.30;53.20;;;;;;5030028;28;20037;-74
2022/07/13 08:32:37;;;;;;;0.00;0.00;;;26.40;52.20;;;;;;5026144;28;20029;-73
2022/07/13 08:40:32;;;;;;;0.00;0.00;;;26.80;45.90;;;;;;5027028;28;20070;-72
2022/07/13 08:42:59;;;;;;;0.90;0.63;;;26.90;45.30;;;;;;5038313;28;20041;-74
2022/07/13 08:45:25;;;;;;;0.00;0.00;;;26.70;44.30;;;;;;5015097;28;20112;-74
2022/07/13 08:47:51;;;;;;;0.00;0.00;;;26.80;46.60;;;;;;5033300;28;20041;-73
2022/07/13 08:50:20;;;;;;;0.00;0.00;;;27.00;47.50;;;;;;5041333;28;20036;-74
2022/07/13 08:52:46;;;;;;;0.00;0.00;;;27.30;45.40;;;;;;5041790;28;20522;-73
2022/07/13 08:55:12;;;;;;;0.00;0.00;;;27.40;44.40;;;;;;5036116;28;20031;-73
2022/07/13 08:57:39;;;;;;;0.00;0.00;;;27.60;45.30;;;;;;5018375;28;20400;-73
2022/07/13 09:00:09;;;;;;;0.00;0.00;;;27.90;45.70;;;;;;5041184;28;20380;-74
2022/07/13 09:02:35;;;;;;;0.00;0.00;;;27.90;43.40;;;;;;5040516;28;20037;-74
2022/07/13 09:05:06;;;;;;;0.00;0.00;;;28.10;41.80;;;;;;5030882;28;20064;-72
2022/07/13 09:07:33;;;;;;;0.00;0.00;;;28.20;41.90;;;;;;5032670;28;20079;-72
2022/07/13 09:10:01;;;;;;;0.00;0.00;;;28.50;41.00;;;;;;5029548;28;20095;-72
2022/07/13 09:12:28;;;;;;;0.00;0.00;;;28.40;41.70;;;;;;5042529;28;20033;-73
2022/07/13 09:15:02;;;;;;;0.00;0.00;;;28.30;41.10;;;;;;5032278;28;20404;-72
2022/07/13 09:17:43;;;;;;;0.00;0.00;;;28.30;41.80;;;;;;5040952;28;20036;-73
2022/07/13 09:20:15;;;;;;;0.00;0.00;;;28.10;41.50;;;;;;5041950;28;20160;-73
2022/07/13 09:22:55;;;;;;;0.00;0.00;;;27.80;43.20;;;;;;5041536;28;20466;-73
2022/07/13 09:25:32;;;;;;;0.00;0.00;;;27.60;45.20;;;;;;5042175;28;20033;-74
2022/07/13 09:28:06;;;;;;;0.00;0.00;;;27.60;46.50;;;;;;5041978;28;20033;-73
2022/07/13 09:30:33;;;;;;;0.00;0.00;;;27.60;50.10;;;;;;5042134;28;20072;-73
2022/07/13 09:32:59;;;;;;;2.08;1.10;;;27.30;49.80;;;;;;5034097;28;20538;-73
2022/07/13 09:35:46;;;;;;;0.00;0.00;;;27.30;50.30;;;;;;5034368;28;20491;-73
2022/07/13 09:38:28;;;;;;;0.00;0.00;;;27.30;51.20;;;;;;5042506;28;20167;-73
2022/07/13 09:40:54;;;;;;;0.00;0.00;;;27.20;50.90;;;;;;5041609;28;20393;-73
2022/07/13 09:46:10;;;;;;;0.00;0.00;;;27.40;49.60;;;;;;5041317;28;20405;-74
2022/07/13 09:48:37;;;;;;;0.00;0.00;;;27.40;49.70;;;;;;5041734;28;20389;-74
2022/07/13 09:51:04;;;;;;;0.00;0.00;;;27.60;50.30;;;;;;5032031;28;20055;-73
2022/07/13 09:53:34;;;;;;;0.00;0.00;;;27.60;50.10;;;;;;5043114;28;20094;-73
2022/07/13 09:56:02;;;;;;;0.00;0.00;;;27.60;49.60;;;;;;5043095;28;20043;-73
2022/07/13 09:58:32;;;;;;;0.00;0.00;;;27.60;47.60;;;;;;5043052;28;20118;-73
2022/07/13 10:00:59;;;;;;;0.00;0.00;;;27.50;47.30;;;;;;5034247;28;20127;-73
2022/07/13 10:03:26;;;;;;;0.10;0.10;;;28.10;47.50;;;;;;5043310;28;20045;-73
2022/07/13 10:05:54;;;;;;;0.00;0.00;;;28.80;46.90;;;;;;5042775;28;20044;-73
2022/07/13 10:08:20;;;;;;;0.00;0.00;;;29.20;45.70;;;;;;5034219;28;20048;-73
2022/07/13 10:10:47;;;;;;;0.00;0.00;;;29.40;46.80;;;;;;5032854;28;20328;-74
2022/07/13 10:13:14;;;;;;;0.00;0.00;;;30.00;47.20;;;;;;5034147;28;20087;-74
2022/07/13 10:15:40;;;;;;;0.00;0.00;;;30.40;46.80;;;;;;5031778;28;20028;-73
2022/07/13 10:18:09;;;;;;;0.00;0.00;;;30.10;46.50;;;;;;5033702;28;20095;-73
2022/07/13 10:20:41;;;;;;;0.00;0.00;;;30.30;47.50;;;;;;5033691;28;20681;-73
2022/07/13 10:23:08;;;;;;;0.17;0.17;;;30.40;47.20;;;;;;5042600;28;20075;-74
2022/07/13 10:25:48;;;;;;;0.00;0.00;;;30.50;46.40;;;;;;5032785;28;20021;-74
2022/07/13 10:28:18;;;;;;;0.00;0.00;;;30.30;47.90;;;;;;5041890;28;20104;-73
2022/07/13 10:30:44;;;;;;;0.00;0.00;;;30.10;49.00;;;;;;5042538;28;20469;-73
2022/07/13 10:33:18;;;;;;;0.00;0.00;;;29.90;48.70;;;;;;5031006;28;20287;-73
2022/07/13 10:35:52;;;;;;;0.08;0.08;;;29.50;48.80;;;;;;5031496;28;20469;-72
2022/07/13 10:38:20;;;;;;;0.20;0.10;;;29.50;47.80;;;;;;5031219;28;20033;-72
2022/07/13 10:40:46;;;;;;;0.00;0.00;;;29.60;48.40;;;;;;5032593;28;20116;-72
2022/07/13 10:43:16;;;;;;;0.00;0.00;;;29.50;48.60;;;;;;5042160;28;20033;-72
2022/07/13 10:45:56;;;;;;;0.40;0.40;;;29.90;48.00;;;;;;5032805;28;21232;-72
2022/07/13 10:48:21;;;;;;;0.00;0.00;;;30.20;47.80;;;;;;5041964;28;20029;-72
2022/07/13 10:50:52;;;;;;;0.00;0.00;;;30.30;46.60;;;;;;5041746;28;20017;-72
2022/07/13 10:53:19;;;;;;;0.00;0.00;;;30.50;46.80;;;;;;5032049;28;20029;-72
2022/07/13 10:55:47;;;;;;;0.10;0.10;;;30.10;47.90;;;;;;5041631;28;20156;-72
2022/07/13 10:58:31;;;;;;;0.28;0.28;;;29.30;45.80;;;;;;5029503;28;20095;-73
2022/07/13 11:01:06;;;;;;;0.00;0.00;;;29.30;45.20;;;;;;5033159;28;20033;-72
2022/07/13 11:03:44;;;;;;;0.00;0.00;;;29.20;46.70;;;;;;5030086;28;20033;-73
2022/07/13 11:06:17;;;;;;;0.00;0.00;;;29.70;45.80;;;;;;5039154;28;20041;-73
2022/07/13 11:08:43;;;;;;;0.05;0.05;;;29.90;44.20;;;;;;5027326;28;20464;-74
2022/07/13 11:11:11;;;;;;;0.05;0.05;;;29.70;44.40;;;;;;5030187;28;20028;-73
2022/07/13 11:13:37;;;;;;;0.00;0.00;;;29.60;46.90;;;;;;5039392;28;20668;-73
2022/07/13 11:16:45;;;;;;;0.00;0.00;;;29.10;46.60;;;;;;5041479;28;20044;-73
2022/07/13 11:19:11;;;;;;;0.00;0.00;;;29.30;46.40;;;;;;5041078;28;20047;-72
2022/07/13 11:22:10;;;;;;;0.10;0.10;;;29.40;46.40;;;;;;5041634;28;20392;-72
2022/07/13 11:27:42;;;;;;;0.00;0.00;;;28.70;47.40;;;;;;5041409;28;20079;-73
2022/07/13 11:30:13;;;;;;;0.00;0.00;;;28.80;47.80;;;;;;5041800;28;20574;-73
2022/07/13 11:32:39;;;;;;;0.00;0.00;;;29.00;48.00;;;;;;5041441;28;20025;-72
2022/07/13 11:35:06;;;;;;;0.00;0.00;;;29.20;46.80;;;;;;5031416;28;20120;-72
2022/07/13 11:37:31;;;;;;;0.00;0.00;;;29.50;45.90;;;;;;5030707;28;20126;-72
2022/07/13 11:39:57;;;;;;;0.10;0.10;;;29.70;45.10;;;;;;5041678;28;20040;-72
2022/07/13 11:42:23;;;;;;;0.00;0.00;;;29.90;44.20;;;;;;5032769;28;20028;-72
2022/07/13 11:44:52;;;;;;;0.03;0.03;;;29.70;43.10;;;;;;5031355;28;20455;-73
2022/07/13 11:47:19;;;;;;;0.00;0.00;;;29.70;43.40;;;;;;5012995;28;20029;-73
2022/07/13 11:49:47;;;;;;;0.00;0.00;;;29.30;42.90;;;;;;5041659;28;20064;-73
2022/07/13 11:52:24;;;;;;;0.00;0.00;;;29.20;42.50;;;;;;5041840;28;20033;-72
2022/07/13 11:55:08;;;;;;;0.00;0.00;;;29.50;44.10;;;;;;5030811;28;20028;-72
2022/07/13 11:57:35;;;;;;;0.00;0.00;;;29.50;44.00;;;;;;5040133;28;20078;-73
2022/07/13 12:00:06;;;;;;;0.10;0.10;;;29.50;43.80;;;;;;5041498;28;20432;-73
2022/07/13 12:02:33;;;;;;;0.00;0.00;;;29.40;44.10;;;;;;5040817;28;20440;-73
2022/07/13 12:04:59;;;;;;;0.00;0.00;;;29.50;43.00;;;;;;5040445;28;20036;-73
2022/07/13 12:07:29;;;;;;;0.00;0.00;;;29.50;42.40;;;;;;5032293;28;20059;-75
2022/07/13 12:09:57;;;;;;;0.00;0.00;;;29.60;41.60;;;;;;5040758;28;20021;-72
2022/07/13 12:12:26;;;;;;;0.00;0.00;;;29.70;41.70;;;;;;5030385;28;20287;-72
2022/07/13 12:14:53;;;;;;;0.00;0.00;;;29.60;42.50;;;;;;5040797;28;20455;-73
2022/07/13 12:17:20;;;;;;;0.00;0.00;;;29.70;42.30;;;;;;5040453;28;20036;-73
2022/07/13 12:19:46;;;;;;;0.00;0.00;;;29.70;43.00;;;;;;5040171;28;20041;-73
2022/07/13 12:22:12;;;;;;;0.00;0.00;;;29.70;44.10;;;;;;5039865;28;20025;-73
2022/07/13 12:24:44;;;;;;;0.00;0.00;;;29.80;43.30;;;;;;5014225;28;20021;-73
2022/07/13 12:27:25;;;;;;;0.20;0.20;;;29.80;43.30;;;;;;5040659;28;20511;-74
2022/07/13 12:29:52;;;;;;;0.00;0.00;;;30.00;42.70;;;;;;5039759;28;20396;-73
2022/07/13 12:32:18;;;;;;;0.00;0.00;;;30.20;42.50;;;;;;5040506;28;20025;-73
2022/07/13 12:34:50;;;;;;;0.22;0.22;;;30.10;41.70;;;;;;5031295;28;20033;-73
2022/07/13 12:37:37;;;;;;;0.00;0.00;;;29.70;41.60;;;;;;5028284;28;20037;-74
2022/07/13 12:40:04;;;;;;;0.00;0.00;;;29.70;40.40;;;;;;5031184;28;20029;-73
2022/07/13 12:42:32;;;;;;;0.10;0.08;;;29.70;40.20;;;;;;5040558;28;20032;-73
2022/07/13 12:44:58;;;;;;;0.00;0.00;;;29.90;40.30;;;;;;5039820;28;20435;-72
2022/07/13 12:47:26;;;;;;;0.00;0.00;;;29.90;40.90;;;;;;5040190;28;20029;-73
2022/07/13 12:49:52;;;;;;;1.95;1.85;;;29.60;40.70;;;;;;5030022;28;20032;-74
2022/07/13 12:52:19;;;;;;;0.00;0.00;;;29.50;42.20;;;;;;5029815;28;20025;-73
2022/07/13 12:54:50;;;;;;;0.20;0.20;;;29.50;41.30;;;;;;5040049;28;20102;-73
2022/07/13 12:57:20;;;;;;;0.20;0.20;;;29.50;40.80;;;;;;5040876;28;20547;-73
2022/07/13 13:00:09;;;;;;;0.00;0.00;;;29.40;41.10;;;;;;5039704;28;20025;-73